sensor_id;sensor_type;location;lat;lon;timestamp;pressure;altitude;pressure_sealevel;temperature;humidity
70781;BME280;59514;48.810;2.134;2022-12-18T00:00:46;101102.75;;;-2.29;86.14
70781;BME280;59514;48.810;2.134;2022-12-18T00:03:13;101095.72;;;-2.29;87.29
70781;BME280;59514;48.810;2.134;2022-12-18T00:05:46;101092.38;;;-2.31;86.46
70781;BME280;59514;48.810;2.134;2022-12-18T00:08:12;101100.63;;;-2.35;87.21
70781;BME280;59514;48.810;2.134;2022-12-18T00:10:37;101100.63;;;-2.35;87.18
70781;BME280;59514;48.810;2.134;2022-12-18T00:13:03;101099.66;;;-2.34;87.50
70781;BME280;59514;48.810;2.134;2022-12-18T00:15:28;101107.16;;;-2.30;87.07
70781;BME280;59514;48.810;2.134;2022-12-18T00:17:53;101105.72;;;-2.23;87.17
70781;BME280;59514;48.810;2.134;2022-12-18T00:20:19;101105.75;;;-2.34;87.27
70781;BME280;59514;48.810;2.134;2022-12-18T00:22:50;101103.13;;;-2.34;86.91
70781;BME280;59514;48.810;2.134;2022-12-18T00:25:16;101110.06;;;-2.33;86.92
70781;BME280;59514;48.810;2.134;2022-12-18T00:27:41;101114.72;;;-2.36;87.47
70781;BME280;59514;48.810;2.134;2022-12-18T00:30:07;101115.06;;;-2.30;86.81
70781;BME280;59514;48.810;2.134;2022-12-18T00:32:32;101102.28;;;-2.34;87.03
70781;BME280;59514;48.810;2.134;2022-12-18T00:34:57;101098.91;;;-2.25;86.92
70781;BME280;59514;48.810;2.134;2022-12-18T00:37:23;101099.53;;;-2.33;86.70
70781;BME280;59514;48.810;2.134;2022-12-18T00:39:48;101106.31;;;-2.30;86.98
70781;BME280;59514;48.810;2.134;2022-12-18T00:42:14;101102.88;;;-2.31;87.07
70781;BME280;59514;48.810;2.134;2022-12-18T00:44:58;101096.91;;;-2.33;86.78
70781;BME280;59514;48.810;2.134;2022-12-18T00:47:23;101101.34;;;-2.33;87.11
70781;BME280;59514;48.810;2.134;2022-12-18T00:49:48;101101.91;;;-2.30;87.23
70781;BME280;59514;48.810;2.134;2022-12-18T00:52:14;101101.53;;;-2.25;86.79
70781;BME280;59514;48.810;2.134;2022-12-18T00:54:39;101092.94;;;-2.27;86.55
70781;BME280;59514;48.810;2.134;2022-12-18T00:57:04;101100.97;;;-2.29;87.12
70781;BME280;59514;48.810;2.134;2022-12-18T00:59:30;101092.75;;;-2.35;86.77
70781;BME280;59514;48.810;2.134;2022-12-18T01:01:55;101094.53;;;-2.36;87.06
70781;BME280;59514;48.810;2.134;2022-12-18T01:04:20;101089.41;;;-2.37;86.64
70781;BME280;59514;48.810;2.134;2022-12-18T01:06:46;101086.28;;;-2.31;86.76
70781;BME280;59514;48.810;2.134;2022-12-18T01:09:11;101077.41;;;-2.30;85.88
70781;BME280;59514;48.810;2.134;2022-12-18T01:11:37;101072.41;;;-2.33;85.92
70781;BME280;59514;48.810;2.134;2022-12-18T01:14:02;101074.56;;;-2.38;86.24
70781;BME280;59514;48.810;2.134;2022-12-18T01:16:28;101074.34;;;-2.35;86.75
70781;BME280;59514;48.810;2.134;2022-12-18T01:18:54;101075.25;;;-2.25;86.65
70781;BME280;59514;48.810;2.134;2022-12-18T01:21:20;101082.66;;;-2.30;85.83
70781;BME280;59514;48.810;2.134;2022-12-18T01:23:46;101083.50;;;-2.30;85.66
70781;BME280;59514;48.810;2.134;2022-12-18T01:26:14;101078.47;;;-2.22;85.64
70781;BME280;59514;48.810;2.134;2022-12-18T01:28:41;101064.22;;;-2.19;85.51
70781;BME280;59514;48.810;2.134;2022-12-18T01:31:16;101067.94;;;-2.22;85.34
70781;BME280;59514;48.810;2.134;2022-12-18T01:33:42;101075.25;;;-2.25;84.87
70781;BME280;59514;48.810;2.134;2022-12-18T01:36:14;101073.56;;;-2.26;85.00
70781;BME280;59514;48.810;2.134;2022-12-18T01:38:40;101077.63;;;-2.22;85.08
70781;BME280;59514;48.810;2.134;2022-12-18T01:41:05;101078.31;;;-2.20;84.67
70781;BME280;59514;48.810;2.134;2022-12-18T01:46:09;101070.22;;;-2.28;84.50
70781;BME280;59514;48.810;2.134;2022-12-18T01:48:34;101060.81;;;-2.31;85.06
70781;BME280;59514;48.810;2.134;2022-12-18T01:51:00;101066.78;;;-2.29;85.58
70781;BME280;59514;48.810;2.134;2022-12-18T01:53:26;101065.09;;;-2.30;84.54
70781;BME280;59514;48.810;2.134;2022-12-18T01:55:53;101056.38;;;-2.30;85.21
70781;BME280;59514;48.810;2.134;2022-12-18T01:58:24;101054.09;;;-2.24;84.54
70781;BME280;59514;48.810;2.134;2022-12-18T02:00:55;101058.13;;;-2.20;84.01
70781;BME280;59514;48.810;2.134;2022-12-18T02:03:20;101057.91;;;-2.17;84.42
70781;BME280;59514;48.810;2.134;2022-12-18T02:06:00;101055.25;;;-2.17;84.51
70781;BME280;59514;48.810;2.134;2022-12-18T02:08:38;101045.56;;;-2.16;83.98
70781;BME280;59514;48.810;2.134;2022-12-18T02:11:14;101045.25;;;-2.23;84.04
70781;BME280;59514;48.810;2.134;2022-12-18T02:17:05;101035.53;;;-2.22;84.32
70781;BME280;59514;48.810;2.134;2022-12-18T02:22:48;101022.16;;;-2.19;83.96
70781;BME280;59514;48.810;2.134;2022-12-18T02:28:16;101017.53;;;-2.27;84.11
70781;BME280;59514;48.810;2.134;2022-12-18T02:30:45;101020.75;;;-2.23;84.12
70781;BME280;59514;48.810;2.134;2022-12-18T02:33:13;101011.63;;;-2.19;84.07
70781;BME280;59514;48.810;2.134;2022-12-18T02:35:40;101014.97;;;-2.17;84.19
70781;BME280;59514;48.810;2.134;2022-12-18T02:38:06;101017.97;;;-2.22;83.80
70781;BME280;59514;48.810;2.134;2022-12-18T02:40:31;101013.28;;;-2.18;84.19
70781;BME280;59514;48.810;2.134;2022-12-18T02:43:11;101008.75;;;-2.16;83.21
70781;BME280;59514;48.810;2.134;2022-12-18T02:45:47;101011.13;;;-2.13;83.92
70781;BME280;59514;48.810;2.134;2022-12-18T02:48:13;101012.53;;;-2.09;83.53
70781;BME280;59514;48.810;2.134;2022-12-18T02:50:45;101000.34;;;-2.10;83.07
70781;BME280;59514;48.810;2.134;2022-12-18T02:53:37;101003.75;;;-2.19;83.43
70781;BME280;59514;48.810;2.134;2022-12-18T03:03:46;100999.94;;;-2.26;83.88
70781;BME280;59514;48.810;2.134;2022-12-18T03:06:28;101003.56;;;-2.27;83.37
70781;BME280;59514;48.810;2.134;2022-12-18T03:09:00;100999.69;;;-2.23;83.63
70781;BME280;59514;48.810;2.134;2022-12-18T03:11:31;101003.28;;;-2.24;83.34
70781;BME280;59514;48.810;2.134;2022-12-18T03:14:19;101011.88;;;-2.22;83.92
70781;BME280;59514;48.810;2.134;2022-12-18T03:16:48;100998.72;;;-2.22;83.14
70781;BME280;59514;48.810;2.134;2022-12-18T03:19:21;101014.78;;;-2.25;83.62
70781;BME280;59514;48.810;2.134;2022-12-18T03:21:54;101010.78;;;-2.20;83.34
70781;BME280;59514;48.810;2.134;2022-12-18T03:24:21;101019.31;;;-2.27;82.88
70781;BME280;59514;48.810;2.134;2022-12-18T03:26:51;101017.28;;;-2.24;83.65
70781;BME280;59514;48.810;2.134;2022-12-18T03:29:26;101005.81;;;-2.23;82.67
70781;BME280;59514;48.810;2.134;2022-12-18T03:31:55;101022.41;;;-2.22;83.31
70781;BME280;59514;48.810;2.134;2022-12-18T03:34:27;101012.00;;;-2.24;82.88
70781;BME280;59514;48.810;2.134;2022-12-18T03:36:54;101014.06;;;-2.27;82.90
70781;BME280;59514;48.810;2.134;2022-12-18T03:39:20;101008.09;;;-2.29;83.07
70781;BME280;59514;48.810;2.134;2022-12-18T03:52:53;100994.28;;;-2.42;83.47
70781;BME280;59514;48.810;2.134;2022-12-18T03:55:21;100990.13;;;-2.45;83.22
70781;BME280;59514;48.810;2.134;2022-12-18T03:57:49;100990.88;;;-2.54;83.83
70781;BME280;59514;48.810;2.134;2022-12-18T04:00:18;100979.53;;;-2.54;84.30
70781;BME280;59514;48.810;2.134;2022-12-18T04:02:52;100983.97;;;-2.55;84.39
70781;BME280;59514;48.810;2.134;2022-12-18T04:05:20;100983.13;;;-2.55;84.19
70781;BME280;59514;48.810;2.134;2022-12-18T04:07:47;100982.84;;;-2.52;83.48
70781;BME280;59514;48.810;2.134;2022-12-18T04:10:16;100984.28;;;-2.48;83.17
70781;BME280;59514;48.810;2.134;2022-12-18T04:12:42;100985.31;;;-2.60;84.05
70781;BME280;59514;48.810;2.134;2022-12-18T04:15:08;100987.69;;;-2.57;83.57
70781;BME280;59514;48.810;2.134;2022-12-18T04:17:33;100990.16;;;-2.56;84.03
70781;BME280;59514;48.810;2.134;2022-12-18T04:19:59;100986.06;;;-2.70;84.31
70781;BME280;59514;48.810;2.134;2022-12-18T04:22:24;100974.38;;;-2.77;84.07
70781;BME280;59514;48.810;2.134;2022-12-18T04:24:49;100971.25;;;-2.71;83.99
70781;BME280;59514;48.810;2.134;2022-12-18T04:27:15;100966.94;;;-2.72;84.75
70781;BME280;59514;48.810;2.134;2022-12-18T04:29:40;100955.94;;;-2.66;84.50
70781;BME280;59514;48.810;2.134;2022-12-18T04:32:05;100959.53;;;-2.67;84.25
70781;BME280;59514;48.810;2.134;2022-12-18T04:34:31;100959.53;;;-2.67;84.00
70781;BME280;59514;48.810;2.134;2022-12-18T04:36:57;100959.56;;;-2.78;84.29
70781;BME280;59514;48.810;2.134;2022-12-18T04:39:22;100975.81;;;-2.73;84.67
70781;BME280;59514;48.810;2.134;2022-12-18T04:41:47;100993.50;;;-2.75;84.17
70781;BME280;59514;48.810;2.134;2022-12-18T04:44:13;100991.56;;;-2.73;84.33
70781;BME280;59514;48.810;2.134;2022-12-18T04:46:38;100991.06;;;-2.67;84.26
70781;BME280;59514;48.810;2.134;2022-12-18T04:49:03;100985.22;;;-2.70;83.67
70781;BME280;59514;48.810;2.134;2022-12-18T04:51:29;100987.72;;;-2.69;83.78
70781;BME280;59514;48.810;2.134;2022-12-18T04:53:54;100998.75;;;-2.75;84.73
70781;BME280;59514;48.810;2.134;2022-12-18T04:56:20;100992.31;;;-2.82;85.15
70781;BME280;59514;48.810;2.134;2022-12-18T04:58:45;100989.88;;;-2.74;83.82
70781;BME280;59514;48.810;2.134;2022-12-18T05:01:12;100996.94;;;-2.74;84.14
70781;BME280;59514;48.810;2.134;2022-12-18T05:03:38;100997.91;;;-2.75;84.34
70781;BME280;59514;48.810;2.134;2022-12-18T05:06:04;100999.72;;;-2.87;84.06
70781;BME280;59514;48.810;2.134;2022-12-18T05:08:30;101000.53;;;-2.86;85.07
70781;BME280;59514;48.810;2.134;2022-12-18T05:13:25;101001.03;;;-2.81;84.91
70781;BME280;59514;48.810;2.134;2022-12-18T05:15:52;101004.00;;;-2.86;84.61
70781;BME280;59514;48.810;2.134;2022-12-18T05:18:17;101002.81;;;-2.82;84.15
70781;BME280;59514;48.810;2.134;2022-12-18T05:20:43;101015.22;;;-2.84;84.05
70781;BME280;59514;48.810;2.134;2022-12-18T05:23:08;101019.06;;;-2.88;84.18
70781;BME280;59514;48.810;2.134;2022-12-18T05:25:35;101018.94;;;-2.86;84.75
70781;BME280;59514;48.810;2.134;2022-12-18T05:28:00;101024.09;;;-2.85;84.53
70781;BME280;59514;48.810;2.134;2022-12-18T05:30:25;101019.91;;;-2.87;84.43
70781;BME280;59514;48.810;2.134;2022-12-18T05:32:51;101024.31;;;-2.88;84.05
70781;BME280;59514;48.810;2.134;2022-12-18T05:35:16;101011.91;;;-2.86;84.23
70781;BME280;59514;48.810;2.134;2022-12-18T05:37:41;101014.06;;;-2.91;84.31
70781;BME280;59514;48.810;2.134;2022-12-18T05:40:07;101017.78;;;-2.93;84.55
70781;BME280;59514;48.810;2.134;2022-12-18T05:42:33;101008.22;;;-2.94;83.50
70781;BME280;59514;48.810;2.134;2022-12-18T05:44:58;101007.88;;;-3.01;85.03
70781;BME280;59514;48.810;2.134;2022-12-18T05:47:23;100995.91;;;-2.94;84.08
70781;BME280;59514;48.810;2.134;2022-12-18T05:49:49;100985.28;;;-2.92;84.17
70781;BME280;59514;48.810;2.134;2022-12-18T05:52:14;100978.94;;;-2.90;83.91
70781;BME280;59514;48.810;2.134;2022-12-18T05:54:39;100975.03;;;-2.95;84.09
70781;BME280;59514;48.810;2.134;2022-12-18T05:57:05;100981.13;;;-2.95;83.73
70781;BME280;59514;48.810;2.134;2022-12-18T05:59:30;100975.63;;;-2.92;84.56
70781;BME280;59514;48.810;2.134;2022-12-18T06:01:56;100976.31;;;-2.90;83.29
70781;BME280;59514;48.810;2.134;2022-12-18T06:04:21;100971.19;;;-2.91;84.26
70781;BME280;59514;48.810;2.134;2022-12-18T06:06:46;100966.78;;;-2.91;84.84
70781;BME280;59514;48.810;2.134;2022-12-18T06:09:12;100973.00;;;-2.92;83.56
70781;BME280;59514;48.810;2.134;2022-12-18T06:11:38;100970.38;;;-2.92;84.73
70781;BME280;59514;48.810;2.134;2022-12-18T06:14:05;100980.78;;;-3.01;84.01
70781;BME280;59514;48.810;2.134;2022-12-18T06:16:31;100980.88;;;-2.92;83.39
70781;BME280;59514;48.810;2.134;2022-12-18T06:19:00;100975.63;;;-2.92;83.41
70781;BME280;59514;48.810;2.134;2022-12-18T06:21:27;100976.47;;;-2.91;83.77
70781;BME280;59514;48.810;2.134;2022-12-18T06:23:52;100979.22;;;-2.93;83.06
70781;BME280;59514;48.810;2.134;2022-12-18T06:26:18;100994.47;;;-2.87;83.48
70781;BME280;59514;48.810;2.134;2022-12-18T06:28:43;100991.13;;;-2.89;83.31
70781;BME280;59514;48.810;2.134;2022-12-18T06:31:09;100994.47;;;-2.87;83.58
70781;BME280;59514;48.810;2.134;2022-12-18T06:33:35;100998.88;;;-2.87;82.46
70781;BME280;59514;48.810;2.134;2022-12-18T06:36:03;100994.97;;;-2.93;83.82
70781;BME280;59514;48.810;2.134;2022-12-18T06:38:28;100981.84;;;-2.93;83.29
70781;BME280;59514;48.810;2.134;2022-12-18T06:40:54;100973.81;;;-2.91;83.29
70781;BME280;59514;48.810;2.134;2022-12-18T06:43:19;100980.03;;;-2.92;83.29
70781;BME280;59514;48.810;2.134;2022-12-18T06:45:45;100974.06;;;-2.94;82.62
70781;BME280;59514;48.810;2.134;2022-12-18T06:48:11;100962.03;;;-2.97;83.51
70781;BME280;59514;48.810;2.134;2022-12-18T06:50:36;100956.31;;;-3.02;83.16
70781;BME280;59514;48.810;2.134;2022-12-18T06:53:01;100948.91;;;-3.08;83.05
70781;BME280;59514;48.810;2.134;2022-12-18T06:55:27;100953.94;;;-3.05;83.09
70781;BME280;59514;48.810;2.134;2022-12-18T06:57:52;100951.53;;;-3.08;83.10
70781;BME280;59514;48.810;2.134;2022-12-18T07:00:17;100947.13;;;-3.07;83.11
70781;BME280;59514;48.810;2.134;2022-12-18T07:02:43;100955.84;;;-3.07;83.05
70781;BME280;59514;48.810;2.134;2022-12-18T07:05:08;100951.44;;;-3.06;83.33
70781;BME280;59514;48.810;2.134;2022-12-18T07:07:34;100958.63;;;-3.08;83.70
70781;BME280;59514;48.810;2.134;2022-12-18T07:10:00;100946.28;;;-3.08;82.92
70781;BME280;59514;48.810;2.134;2022-12-18T07:12:26;100945.34;;;-3.07;82.67
70781;BME280;59514;48.810;2.134;2022-12-18T07:14:52;100940.09;;;-3.07;83.06
70781;BME280;59514;48.810;2.134;2022-12-18T07:17:17;100942.59;;;-3.05;82.08
70781;BME280;59514;48.810;2.134;2022-12-18T07:19:42;100938.41;;;-3.08;83.13
70781;BME280;59514;48.810;2.134;2022-12-18T07:22:08;100933.16;;;-3.08;83.51
70781;BME280;59514;48.810;2.134;2022-12-18T07:24:33;100951.69;;;-3.09;82.82
70781;BME280;59514;48.810;2.134;2022-12-18T07:26:59;100956.94;;;-3.09;83.28
70781;BME280;59514;48.810;2.134;2022-12-18T07:29:24;100947.00;;;-3.06;83.33
70781;BME280;59514;48.810;2.134;2022-12-18T07:31:50;100952.25;;;-3.06;83.52
70781;BME280;59514;48.810;2.134;2022-12-18T07:34:16;100960.25;;;-3.07;82.90
70781;BME280;59514;48.810;2.134;2022-12-18T07:36:41;100954.31;;;-3.09;83.35
70781;BME280;59514;48.810;2.134;2022-12-18T07:39:07;100963.03;;;-3.09;82.72
70781;BME280;59514;48.810;2.134;2022-12-18T07:41:32;100967.44;;;-3.09;82.29
70781;BME280;59514;48.810;2.134;2022-12-18T07:43:58;100964.09;;;-3.11;82.80
70781;BME280;59514;48.810;2.134;2022-12-18T07:46:23;100968.00;;;-3.06;83.40
70781;BME280;59514;48.810;2.134;2022-12-18T07:48:48;100961.09;;;-3.07;82.41
70781;BME280;59514;48.810;2.134;2022-12-18T07:51:14;100957.78;;;-3.09;82.85
70781;BME280;59514;48.810;2.134;2022-12-18T07:53:40;100959.41;;;-3.08;82.55
70781;BME280;59514;48.810;2.134;2022-12-18T07:56:08;100959.31;;;-3.06;82.73
70781;BME280;59514;48.810;2.134;2022-12-18T07:58:34;100963.03;;;-3.09;82.58
70781;BME280;59514;48.810;2.134;2022-12-18T08:03:29;100954.31;;;-3.09;83.26
70781;BME280;59514;48.810;2.134;2022-12-18T08:06:01;100950.59;;;-3.07;83.09
70781;BME280;59514;48.810;2.134;2022-12-18T08:08:28;100948.91;;;-3.08;83.21
70781;BME280;59514;48.810;2.134;2022-12-18T08:10:53;100950.34;;;-3.04;82.52
70781;BME280;59514;48.810;2.134;2022-12-18T08:13:19;100959.19;;;-3.05;83.12
70781;BME280;59514;48.810;2.134;2022-12-18T08:15:44;100973.75;;;-3.01;82.74
70781;BME280;59514;48.810;2.134;2022-12-18T08:18:09;100958.94;;;-3.02;82.74
70781;BME280;59514;48.810;2.134;2022-12-18T08:20:35;100967.78;;;-3.03;82.53
70781;BME280;59514;48.810;2.134;2022-12-18T08:23:00;100973.25;;;-3.06;83.69
70781;BME280;59514;48.810;2.134;2022-12-18T08:25:25;100974.09;;;-3.05;83.89
70781;BME280;59514;48.810;2.134;2022-12-18T08:27:51;100974.69;;;-3.02;83.43
70781;BME280;59514;48.810;2.134;2022-12-18T08:30:16;100980.28;;;-2.95;82.31
70781;BME280;59514;48.810;2.134;2022-12-18T08:32:41;100980.63;;;-2.89;82.43
70781;BME280;59514;48.810;2.134;2022-12-18T08:35:07;100982.88;;;-2.84;82.69
70781;BME280;59514;48.810;2.134;2022-12-18T08:37:33;100981.34;;;-2.87;82.47
70781;BME280;59514;48.810;2.134;2022-12-18T08:39:58;100987.31;;;-2.85;82.46
70781;BME280;59514;48.810;2.134;2022-12-18T08:42:24;100992.56;;;-2.85;81.63
70781;BME280;59514;48.810;2.134;2022-12-18T08:45:08;100995.91;;;-2.83;82.26
70781;BME280;59514;48.810;2.134;2022-12-18T08:47:33;100996.84;;;-2.84;82.71
70781;BME280;59514;48.810;2.134;2022-12-18T08:49:59;100988.97;;;-2.84;82.82
70781;BME280;59514;48.810;2.134;2022-12-18T08:52:24;100997.81;;;-2.85;82.31
70781;BME280;59514;48.810;2.134;2022-12-18T08:54:49;100993.97;;;-2.81;82.55
70781;BME280;59514;48.810;2.134;2022-12-18T08:57:14;100988.34;;;-2.76;82.48
70781;BME280;59514;48.810;2.134;2022-12-18T08:59:40;100977.72;;;-2.75;82.15
70781;BME280;59514;48.810;2.134;2022-12-18T09:02:05;100983.34;;;-2.79;82.83
70781;BME280;59514;48.810;2.134;2022-12-18T09:04:30;100985.47;;;-2.73;82.37
70781;BME280;59514;48.810;2.134;2022-12-18T09:06:56;100995.84;;;-2.72;82.36
70781;BME280;59514;48.810;2.134;2022-12-18T09:09:21;100990.81;;;-2.64;82.16
70781;BME280;59514;48.810;2.134;2022-12-18T09:11:46;100989.72;;;-2.61;82.38
70781;BME280;59514;48.810;2.134;2022-12-18T09:14:12;100981.97;;;-2.63;82.51
70781;BME280;59514;48.810;2.134;2022-12-18T09:16:37;100977.81;;;-2.65;82.57
70781;BME280;59514;48.810;2.134;2022-12-18T09:19:04;100977.59;;;-2.52;82.23
70781;BME280;59514;48.810;2.134;2022-12-18T09:21:32;100968.50;;;-2.48;81.94
70781;BME280;59514;48.810;2.134;2022-12-18T09:23:58;100976.28;;;-2.47;82.22
70781;BME280;59514;48.810;2.134;2022-12-18T09:26:25;100972.53;;;-2.44;81.83
70781;BME280;59514;48.810;2.134;2022-12-18T09:28:50;100975.44;;;-2.47;82.85
70781;BME280;59514;48.810;2.134;2022-12-18T09:31:18;100973.38;;;-2.44;83.04
70781;BME280;59514;48.810;2.134;2022-12-18T09:33:45;100976.78;;;-2.32;81.74
70781;BME280;59514;48.810;2.134;2022-12-18T09:36:13;100977.78;;;-2.33;81.82
70781;BME280;59514;48.810;2.134;2022-12-18T09:38:39;100971.81;;;-2.35;81.27
70781;BME280;59514;48.810;2.134;2022-12-18T09:46:42;100978.34;;;-2.30;82.36
70781;BME280;59514;48.810;2.134;2022-12-18T09:49:13;100969.44;;;-2.18;82.46
70781;BME280;59514;48.810;2.134;2022-12-18T09:51:44;100973.59;;;-2.15;81.66
70781;BME280;59514;48.810;2.134;2022-12-18T09:54:17;100966.28;;;-2.12;82.35
70781;BME280;59514;48.810;2.134;2022-12-18T09:56:43;100964.91;;;-2.06;81.99
70781;BME280;59514;48.810;2.134;2022-12-18T09:59:24;100971.16;;;-2.07;81.64
70781;BME280;59514;48.810;2.134;2022-12-18T10:01:51;100973.66;;;-2.06;82.12
70781;BME280;59514;48.810;2.134;2022-12-18T10:04:17;100971.03;;;-2.06;81.43
70781;BME280;59514;48.810;2.134;2022-12-18T10:09:24;100971.97;;;-2.07;81.44
70781;BME280;59514;48.810;2.134;2022-12-18T10:12:17;100979.75;;;-2.05;81.57
70781;BME280;59514;48.810;2.134;2022-12-18T10:14:58;100977.56;;;-2.00;81.86
70781;BME280;59514;48.810;2.134;2022-12-18T10:17:41;100974.16;;;-1.91;81.69
70781;BME280;59514;48.810;2.134;2022-12-18T10:20:21;100962.84;;;-1.82;81.24
70781;BME280;59514;48.810;2.134;2022-12-18T10:25:46;100954.25;;;-1.84;81.54
70781;BME280;59514;48.810;2.134;2022-12-18T10:28:16;100945.13;;;-1.80;81.47
70781;BME280;59514;48.810;2.134;2022-12-18T10:30:43;100947.19;;;-1.84;81.38
70781;BME280;59514;48.810;2.134;2022-12-18T10:33:20;100941.81;;;-1.73;81.61
70781;BME280;59514;48.810;2.134;2022-12-18T10:35:48;100942.13;;;-1.66;81.87
70781;BME280;59514;48.810;2.134;2022-12-18T10:41:44;100931.06;;;-1.60;81.51
70781;BME280;59514;48.810;2.134;2022-12-18T10:44:17;100946.59;;;-1.57;81.64
70781;BME280;59514;48.810;2.134;2022-12-18T10:46:45;100939.84;;;-1.50;81.57
70781;BME280;59514;48.810;2.134;2022-12-18T10:49:28;100937.75;;;-1.46;82.31
70781;BME280;59514;48.810;2.134;2022-12-18T10:52:15;100930.31;;;-1.41;81.31
70781;BME280;59514;48.810;2.134;2022-12-18T10:54:48;100933.22;;;-1.35;81.71
70781;BME280;59514;48.810;2.134;2022-12-18T10:57:35;100934.19;;;-1.36;81.49
70781;BME280;59514;48.810;2.134;2022-12-18T11:00:24;100941.56;;;-1.30;81.81
70781;BME280;59514;48.810;2.134;2022-12-18T11:02:50;100937.69;;;-1.26;81.84
70781;BME280;59514;48.810;2.134;2022-12-18T11:05:29;100931.19;;;-1.22;80.87
70781;BME280;59514;48.810;2.134;2022-12-18T11:07:55;100937.25;;;-1.21;81.25
70781;BME280;59514;48.810;2.134;2022-12-18T11:10:39;100934.78;;;-1.13;81.21
70781;BME280;59514;48.810;2.134;2022-12-18T11:13:22;100930.91;;;-1.09;81.18
70781;BME280;59514;48.810;2.134;2022-12-18T11:15:50;100927.03;;;-1.05;80.63
70781;BME280;59514;48.810;2.134;2022-12-18T11:18:28;100923.44;;;-1.04;82.09
70781;BME280;59514;48.810;2.134;2022-12-18T11:21:21;100917.34;;;-0.76;81.27
70781;BME280;59514;48.810;2.134;2022-12-18T11:23:49;100914.56;;;-0.74;80.37
70781;BME280;59514;48.810;2.134;2022-12-18T11:26:15;100910.94;;;-0.73;80.00
70781;BME280;59514;48.810;2.134;2022-12-18T11:28:51;100907.50;;;-0.64;80.11
70781;BME280;59514;48.810;2.134;2022-12-18T11:31:20;100910.00;;;-0.63;79.71
70781;BME280;59514;48.810;2.134;2022-12-18T11:34:03;100909.16;;;-0.63;79.70
70781;BME280;59514;48.810;2.134;2022-12-18T11:36:37;100904.00;;;-0.55;79.69
70781;BME280;59514;48.810;2.134;2022-12-18T11:39:11;100910.97;;;-0.54;79.94
70781;BME280;59514;48.810;2.134;2022-12-18T11:41:56;100910.13;;;-0.55;79.61
70781;BME280;59514;48.810;2.134;2022-12-18T11:44:51;100898.16;;;-0.40;80.48
70781;BME280;59514;48.810;2.134;2022-12-18T11:50:49;100887.34;;;-0.37;79.18
70781;BME280;59514;48.810;2.134;2022-12-18T11:53:15;100877.31;;;-0.33;79.66
70781;BME280;59514;48.810;2.134;2022-12-18T11:55:53;100887.00;;;-0.15;79.25
70781;BME280;59514;48.810;2.134;2022-12-18T11:59:04;100869.81;;;-0.28;79.64
70781;BME280;59514;48.810;2.134;2022-12-18T12:06:49;100852.88;;;-0.35;79.66
70781;BME280;59514;48.810;2.134;2022-12-18T12:18:01;100847.03;;;-0.29;80.64
70781;BME280;59514;48.810;2.134;2022-12-18T12:20:49;100842.88;;;-0.22;80.22
70781;BME280;59514;48.810;2.134;2022-12-18T12:26:28;100841.50;;;-0.26;79.96
70781;BME280;59514;48.810;2.134;2022-12-18T12:29:19;100843.00;;;-0.24;79.75
70781;BME280;59514;48.810;2.134;2022-12-18T12:32:15;100845.34;;;-0.21;80.55
70781;BME280;59514;48.810;2.134;2022-12-18T12:40:30;100844.16;;;0.01;78.10
70781;BME280;59514;48.810;2.134;2022-12-18T12:43:01;100837.81;;;0.21;80.46
70781;BME280;59514;48.810;2.134;2022-12-18T12:45:57;100841.09;;;0.50;78.84
70781;BME280;59514;48.810;2.134;2022-12-18T12:48:34;100840.22;;;0.59;76.92
70781;BME280;59514;48.810;2.134;2022-12-18T12:51:11;100842.56;;;0.62;77.98
70781;BME280;59514;48.810;2.134;2022-12-18T12:53:40;100830.53;;;0.50;76.99
70781;BME280;59514;48.810;2.134;2022-12-18T12:56:09;100831.03;;;0.36;77.22
70781;BME280;59514;48.810;2.134;2022-12-18T13:03:57;100814.31;;;0.28;78.26
70781;BME280;59514;48.810;2.134;2022-12-18T13:09:00;100820.53;;;0.27;78.84
70781;BME280;59514;48.810;2.134;2022-12-18T13:11:44;100826.66;;;0.27;78.44
70781;BME280;59514;48.810;2.134;2022-12-18T13:14:32;100820.38;;;0.28;79.16
70781;BME280;59514;48.810;2.134;2022-12-18T13:17:24;100813.16;;;0.30;79.54
70781;BME280;59514;48.810;2.134;2022-12-18T13:20:13;100809.81;;;0.28;78.91
70781;BME280;59514;48.810;2.134;2022-12-18T13:22:49;100799.66;;;0.33;79.26
70781;BME280;59514;48.810;2.134;2022-12-18T13:25:38;100786.47;;;0.33;79.45
70781;BME280;59514;48.810;2.134;2022-12-18T13:30:59;100798.41;;;0.37;79.38
70781;BME280;59514;48.810;2.134;2022-12-18T13:35:53;100784.19;;;0.38;79.73
70781;BME280;59514;48.810;2.134;2022-12-18T13:45:49;100774.72;;;0.45;80.55
70781;BME280;59514;48.810;2.134;2022-12-18T13:48:21;100781.34;;;0.49;80.32
70781;BME280;59514;48.810;2.134;2022-12-18T13:51:20;100761.72;;;0.52;80.54
70781;BME280;59514;48.810;2.134;2022-12-18T13:53:50;100756.31;;;0.53;80.41
70781;BME280;59514;48.810;2.134;2022-12-18T13:56:28;100749.88;;;0.56;81.28
70781;BME280;59514;48.810;2.134;2022-12-18T13:59:08;100745.41;;;0.56;80.81
70781;BME280;59514;48.810;2.134;2022-12-18T14:01:36;100731.25;;;0.57;81.30
70781;BME280;59514;48.810;2.134;2022-12-18T14:07:13;100744.81;;;0.62;81.61
70781;BME280;59514;48.810;2.134;2022-12-18T14:09:42;100743.69;;;0.65;81.67
70781;BME280;59514;48.810;2.134;2022-12-18T14:12:30;100741.56;;;0.68;81.52
70781;BME280;59514;48.810;2.134;2022-12-18T14:18:36;100738.31;;;0.74;81.62
70781;BME280;59514;48.810;2.134;2022-12-18T14:20:36;100739.38;;;0.81;81.57
70781;BME280;59514;48.810;2.134;2022-12-18T14:23:04;100737.41;;;0.83;82.46
70781;BME280;59514;48.810;2.134;2022-12-18T14:25:30;100736.41;;;0.84;81.75
70781;BME280;59514;48.810;2.134;2022-12-18T14:30:45;100722.22;;;0.85;81.91
70781;BME280;59514;48.810;2.134;2022-12-18T14:33:16;100729.84;;;0.88;82.22
70781;BME280;59514;48.810;2.134;2022-12-18T14:35:58;100724.88;;;0.85;81.60
70781;BME280;59514;48.810;2.134;2022-12-18T14:38:36;100736.75;;;0.89;81.97
70781;BME280;59514;48.810;2.134;2022-12-18T14:41:11;100731.19;;;0.93;82.55
70781;BME280;59514;48.810;2.134;2022-12-18T14:43:39;100724.22;;;0.92;82.60
70781;BME280;59514;48.810;2.134;2022-12-18T14:46:26;100710.03;;;0.93;82.69
70781;BME280;59514;48.810;2.134;2022-12-18T14:48:52;100723.09;;;0.94;83.25